sensor_id;sensor_type;location;lat;lon;timestamp;pressure;altitude;pressure_sealevel;temperature;humidity
45793;BME280;31495;42.740;22.908;2022-10-22T00:00:08;93966.16;;;6.20;65.31
45793;BME280;31495;42.740;22.908;2022-10-22T00:01:08;93972.72;;;6.23;65.46
45793;BME280;31495;42.740;22.908;2022-10-22T00:02:07;93968.56;;;6.22;65.73
45793;BME280;31495;42.740;22.908;2022-10-22T00:03:07;93968.88;;;6.19;65.71
45793;BME280;31495;42.740;22.908;2022-10-22T00:04:06;93961.81;;;6.13;65.92
45793;BME280;31495;42.740;22.908;2022-10-22T00:05:06;93942.22;;;6.12;65.59
45793;BME280;31495;42.740;22.908;2022-10-22T00:06:06;93964.03;;;6.32;65.22
45793;BME280;31495;42.740;22.908;2022-10-22T00:07:06;93930.19;;;6.12;65.18
45793;BME280;31495;42.740;22.908;2022-10-22T00:08:06;93959.53;;;6.26;65.40
45793;BME280;31495;42.740;22.908;2022-10-22T00:09:05;93957.94;;;6.25;65.46
45793;BME280;31495;42.740;22.908;2022-10-22T00:10:05;93936.75;;;6.15;65.48
45793;BME280;31495;42.740;22.908;2022-10-22T00:11:13;93957.13;;;6.24;65.58
45793;BME280;31495;42.740;22.908;2022-10-22T00:12:14;93899.03;;;5.91;65.54
45793;BME280;31495;42.740;22.908;2022-10-22T00:13:14;93939.31;;;6.06;65.57
45793;BME280;31495;42.740;22.908;2022-10-22T00:14:14;93932.75;;;6.04;66.00
45793;BME280;31495;42.740;22.908;2022-10-22T00:15:14;93912.03;;;5.89;65.93
45793;BME280;31495;42.740;22.908;2022-10-22T00:16:13;93920.22;;;5.84;65.94
45793;BME280;31495;42.740;22.908;2022-10-22T00:17:13;93956.19;;;6.01;65.66
45793;BME280;31495;42.740;22.908;2022-10-22T00:18:12;93958.13;;;5.99;65.52
45793;BME280;31495;42.740;22.908;2022-10-22T00:19:12;93922.31;;;5.73;65.44
45793;BME280;31495;42.740;22.908;2022-10-22T00:20:11;93952.69;;;6.02;65.36
45793;BME280;31495;42.740;22.908;2022-10-22T00:21:11;93946.69;;;5.93;65.00
45793;BME280;31495;42.740;22.908;2022-10-22T00:22:10;93957.00;;;6.01;65.42
45793;BME280;31495;42.740;22.908;2022-10-22T00:23:10;93956.50;;;5.98;65.34
45793;BME280;31495;42.740;22.908;2022-10-22T00:24:10;93961.00;;;5.96;65.21
45793;BME280;31495;42.740;22.908;2022-10-22T00:25:09;93927.44;;;5.81;65.43
45793;BME280;31495;42.740;22.908;2022-10-22T00:26:09;93952.19;;;5.98;65.28
45793;BME280;31495;42.740;22.908;2022-10-22T00:27:10;93951.19;;;5.91;65.58
45793;BME280;31495;42.740;22.908;2022-10-22T00:28:10;93956.00;;;5.86;65.62
45793;BME280;31495;42.740;22.908;2022-10-22T00:29:09;93937.72;;;5.73;65.74
45793;BME280;31495;42.740;22.908;2022-10-22T00:30:09;93962.41;;;5.82;65.88
45793;BME280;31495;42.740;22.908;2022-10-22T00:31:08;93946.84;;;5.75;65.94
45793;BME280;31495;42.740;22.908;2022-10-22T00:32:08;93920.84;;;5.62;66.26
45793;BME280;31495;42.740;22.908;2022-10-22T00:33:08;93957.59;;;5.87;65.90
45793;BME280;31495;42.740;22.908;2022-10-22T00:34:08;93956.16;;;5.84;65.85
45793;BME280;31495;42.740;22.908;2022-10-22T00:35:07;93924.88;;;5.56;65.49
45793;BME280;31495;42.740;22.908;2022-10-22T00:36:07;93953.44;;;5.78;65.47
45793;BME280;31495;42.740;22.908;2022-10-22T00:37:07;93934.81;;;5.67;65.66
45793;BME280;31495;42.740;22.908;2022-10-22T00:38:06;93941.72;;;5.67;65.69
45793;BME280;31495;42.740;22.908;2022-10-22T00:39:06;93902.88;;;5.45;65.72
45793;BME280;31495;42.740;22.908;2022-10-22T00:40:06;93938.66;;;5.71;66.05
45793;BME280;31495;42.740;22.908;2022-10-22T00:41:05;93910.41;;;5.55;66.11
45793;BME280;31495;42.740;22.908;2022-10-22T00:42:05;93926.47;;;5.65;66.02
45793;BME280;31495;42.740;22.908;2022-10-22T00:43:04;93936.72;;;5.65;66.24
45793;BME280;31495;42.740;22.908;2022-10-22T00:44:05;93938.50;;;5.73;66.18
45793;BME280;31495;42.740;22.908;2022-10-22T00:46:10;93937.06;;;5.70;66.34
45793;BME280;31495;42.740;22.908;2022-10-22T00:47:09;93893.91;;;5.33;66.83
45793;BME280;31495;42.740;22.908;2022-10-22T00:48:11;93924.19;;;5.46;67.73
45793;BME280;31495;42.740;22.908;2022-10-22T00:49:11;93930.47;;;5.43;68.21
45793;BME280;31495;42.740;22.908;2022-10-22T00:50:14;93935.13;;;5.40;68.40
45793;BME280;31495;42.740;22.908;2022-10-22T00:51:15;93776.38;;;4.28;68.46
45793;BME280;31495;42.740;22.908;2022-10-22T00:52:14;93926.44;;;5.32;68.69
45793;BME280;31495;42.740;22.908;2022-10-22T00:53:19;93937.53;;;5.33;68.81
45793;BME280;31495;42.740;22.908;2022-10-22T00:54:19;93891.94;;;5.10;68.74
45793;BME280;31495;42.740;22.908;2022-10-22T00:55:19;93890.16;;;5.11;68.62
45793;BME280;31495;42.740;22.908;2022-10-22T00:56:19;93897.72;;;5.21;68.61
45793;BME280;31495;42.740;22.908;2022-10-22T00:57:19;93932.03;;;5.36;68.64
45793;BME280;31495;42.740;22.908;2022-10-22T00:58:22;93931.88;;;5.38;68.23
45793;BME280;31495;42.740;22.908;2022-10-22T00:59:22;93935.44;;;5.37;67.74
45793;BME280;31495;42.740;22.908;2022-10-22T01:00:22;93934.41;;;5.21;67.38
45793;BME280;31495;42.740;22.908;2022-10-22T01:01:25;93933.31;;;5.24;67.43
45793;BME280;31495;42.740;22.908;2022-10-22T01:02:25;93937.53;;;5.33;67.24
45793;BME280;31495;42.740;22.908;2022-10-22T01:03:25;93937.66;;;5.31;67.09
45793;BME280;31495;42.740;22.908;2022-10-22T01:04:25;93920.16;;;5.19;67.25
45793;BME280;31495;42.740;22.908;2022-10-22T01:05:30;93898.50;;;5.13;67.17
45793;BME280;31495;42.740;22.908;2022-10-22T01:06:32;93926.28;;;5.34;67.03
45793;BME280;31495;42.740;22.908;2022-10-22T01:07:36;93928.22;;;5.40;66.92
45793;BME280;31495;42.740;22.908;2022-10-22T01:10:17;93928.03;;;5.33;67.10
45793;BME280;31495;42.740;22.908;2022-10-22T01:12:48;93929.44;;;5.11;67.83
45793;BME280;31495;42.740;22.908;2022-10-22T01:14:15;93921.88;;;5.10;68.17
45793;BME280;31495;42.740;22.908;2022-10-22T01:21:52;93890.63;;;5.14;67.51
45793;BME280;31495;42.740;22.908;2022-10-22T01:23:17;93898.03;;;5.18;67.78
45793;BME280;31495;42.740;22.908;2022-10-22T01:24:31;93900.44;;;5.19;67.79
45793;BME280;31495;42.740;22.908;2022-10-22T01:25:34;93894.03;;;5.15;67.64
45793;BME280;31495;42.740;22.908;2022-10-22T01:26:43;93903.13;;;5.09;67.73
45793;BME280;31495;42.740;22.908;2022-10-22T01:29:16;93900.09;;;5.06;67.91
45793;BME280;31495;42.740;22.908;2022-10-22T01:30:17;93899.13;;;5.07;67.73
45793;BME280;31495;42.740;22.908;2022-10-22T01:31:17;93908.72;;;5.05;67.61
45793;BME280;31495;42.740;22.908;2022-10-22T01:32:22;93864.91;;;4.82;67.44
45793;BME280;31495;42.740;22.908;2022-10-22T01:33:24;93908.41;;;5.00;67.43
45793;BME280;31495;42.740;22.908;2022-10-22T01:34:24;93874.06;;;4.84;67.32
45793;BME280;31495;42.740;22.908;2022-10-22T01:35:30;93917.09;;;5.07;67.18
45793;BME280;31495;42.740;22.908;2022-10-22T01:36:31;93906.47;;;5.02;67.45
45793;BME280;31495;42.740;22.908;2022-10-22T01:37:37;93887.22;;;4.89;67.27
45793;BME280;31495;42.740;22.908;2022-10-22T01:38:39;93916.44;;;5.13;67.19
45793;BME280;31495;42.740;22.908;2022-10-22T01:39:41;93905.09;;;5.15;67.33
45793;BME280;31495;42.740;22.908;2022-10-22T01:40:42;93909.72;;;5.12;67.87
45793;BME280;31495;42.740;22.908;2022-10-22T01:41:45;93914.72;;;5.13;67.85
45793;BME280;31495;42.740;22.908;2022-10-22T01:43:57;93886.94;;;5.01;67.77
45793;BME280;31495;42.740;22.908;2022-10-22T01:44:57;93906.69;;;5.17;67.81
45793;BME280;31495;42.740;22.908;2022-10-22T01:45:59;93895.63;;;5.16;67.68
45793;BME280;31495;42.740;22.908;2022-10-22T01:48:17;93886.59;;;4.95;68.40
45793;BME280;31495;42.740;22.908;2022-10-22T01:49:28;93836.03;;;4.63;68.87
45793;BME280;31495;42.740;22.908;2022-10-22T01:50:37;93895.59;;;5.00;68.71
45793;BME280;31495;42.740;22.908;2022-10-22T01:54:44;93838.28;;;4.66;68.85
45793;BME280;31495;42.740;22.908;2022-10-22T01:58:12;93878.91;;;4.95;68.96
45793;BME280;31495;42.740;22.908;2022-10-22T01:59:57;93856.31;;;4.91;68.62
45793;BME280;31495;42.740;22.908;2022-10-22T02:01:13;93871.69;;;4.99;67.82
45793;BME280;31495;42.740;22.908;2022-10-22T02:03:34;93888.03;;;4.90;67.59
45793;BME280;31495;42.740;22.908;2022-10-22T02:05:48;93829.72;;;4.49;67.47
45793;BME280;31495;42.740;22.908;2022-10-22T02:06:51;93897.63;;;4.88;67.54
45793;BME280;31495;42.740;22.908;2022-10-22T02:08:03;93872.41;;;4.67;67.36
45793;BME280;31495;42.740;22.908;2022-10-22T02:09:06;93907.44;;;4.92;67.42
45793;BME280;31495;42.740;22.908;2022-10-22T02:10:08;93905.34;;;4.96;67.20
45793;BME280;31495;42.740;22.908;2022-10-22T02:11:08;93869.06;;;4.66;67.21
45793;BME280;31495;42.740;22.908;2022-10-22T02:12:10;93906.28;;;4.87;67.34
45793;BME280;31495;42.740;22.908;2022-10-22T02:13:15;93890.69;;;4.72;67.72
45793;BME280;31495;42.740;22.908;2022-10-22T02:14:17;93894.06;;;4.72;68.15
45793;BME280;31495;42.740;22.908;2022-10-22T02:15:18;93903.22;;;4.83;68.44
45793;BME280;31495;42.740;22.908;2022-10-22T02:16:41;93899.56;;;4.86;68.33
45793;BME280;31495;42.740;22.908;2022-10-22T02:17:44;93880.75;;;4.69;68.57
45793;BME280;31495;42.740;22.908;2022-10-22T02:18:46;93909.50;;;4.89;68.47
45793;BME280;31495;42.740;22.908;2022-10-22T02:20:53;93912.72;;;4.91;68.31
45793;BME280;31495;42.740;22.908;2022-10-22T02:21:53;93883.69;;;4.82;68.07
45793;BME280;31495;42.740;22.908;2022-10-22T02:22:53;93885.59;;;4.88;68.42
45793;BME280;31495;42.740;22.908;2022-10-22T02:23:54;93843.56;;;4.56;68.47
45793;BME280;31495;42.740;22.908;2022-10-22T02:24:54;93901.31;;;4.93;68.93
45793;BME280;31495;42.740;22.908;2022-10-22T02:26:18;93888.81;;;4.82;68.76
45793;BME280;31495;42.740;22.908;2022-10-22T02:27:28;93896.84;;;4.87;68.71
45793;BME280;31495;42.740;22.908;2022-10-22T02:28:48;93883.69;;;4.82;68.33
45793;BME280;31495;42.740;22.908;2022-10-22T02:31:00;93870.50;;;4.69;68.05
45793;BME280;31495;42.740;22.908;2022-10-22T02:32:02;93905.97;;;4.90;68.54
45793;BME280;31495;42.740;22.908;2022-10-22T02:33:15;93907.41;;;4.84;68.79
45793;BME280;31495;42.740;22.908;2022-10-22T02:34:20;93890.69;;;4.72;68.95
45793;BME280;31495;42.740;22.908;2022-10-22T02:35:24;93863.88;;;4.50;69.16
45793;BME280;31495;42.740;22.908;2022-10-22T02:36:25;93866.44;;;4.50;69.16
45793;BME280;31495;42.740;22.908;2022-10-22T02:37:25;93867.56;;;4.55;69.11
45793;BME280;31495;42.740;22.908;2022-10-22T02:38:26;93900.31;;;4.70;68.95
45793;BME280;31495;42.740;22.908;2022-10-22T02:39:26;93881.03;;;4.57;68.86
45793;BME280;31495;42.740;22.908;2022-10-22T02:40:27;93893.25;;;4.72;68.80
45793;BME280;31495;42.740;22.908;2022-10-22T02:41:29;93871.44;;;4.59;68.50
45793;BME280;31495;42.740;22.908;2022-10-22T02:42:29;93897.44;;;4.73;68.69
45793;BME280;31495;42.740;22.908;2022-10-22T02:43:28;93886.47;;;4.54;69.07
45793;BME280;31495;42.740;22.908;2022-10-22T02:44:28;93903.13;;;4.58;69.43
45793;BME280;31495;42.740;22.908;2022-10-22T02:45:27;93886.75;;;4.43;69.51
45793;BME280;31495;42.740;22.908;2022-10-22T02:46:28;93895.56;;;4.49;69.35
45793;BME280;31495;42.740;22.908;2022-10-22T02:47:27;93901.06;;;4.62;69.41
45793;BME280;31495;42.740;22.908;2022-10-22T02:48:26;93867.03;;;4.44;69.25
45793;BME280;31495;42.740;22.908;2022-10-22T02:49:26;93852.94;;;4.39;68.84
45793;BME280;31495;42.740;22.908;2022-10-22T02:50:26;93884.91;;;4.62;68.57
45793;BME280;31495;42.740;22.908;2022-10-22T02:51:25;93889.91;;;4.71;68.81
45793;BME280;31495;42.740;22.908;2022-10-22T02:52:25;93888.09;;;4.64;68.95
45793;BME280;31495;42.740;22.908;2022-10-22T02:53:24;93896.78;;;4.71;68.81
45793;BME280;31495;42.740;22.908;2022-10-22T02:54:24;93896.78;;;4.71;68.91
45793;BME280;31495;42.740;22.908;2022-10-22T02:55:23;93885.38;;;4.65;68.90
45793;BME280;31495;42.740;22.908;2022-10-22T02:56:23;93897.47;;;4.81;68.93
45793;BME280;31495;42.740;22.908;2022-10-22T02:57:22;93875.28;;;4.64;69.00
45793;BME280;31495;42.740;22.908;2022-10-22T02:58:21;93898.56;;;4.78;69.04
45793;BME280;31495;42.740;22.908;2022-10-22T02:59:21;93907.84;;;4.71;68.13
45793;BME280;31495;42.740;22.908;2022-10-22T03:00:20;93861.91;;;4.44;67.90
45793;BME280;31495;42.740;22.908;2022-10-22T03:01:20;93902.06;;;4.69;67.89
45793;BME280;31495;42.740;22.908;2022-10-22T03:02:20;93885.38;;;4.65;67.81
45793;BME280;31495;42.740;22.908;2022-10-22T03:03:19;93889.06;;;4.63;67.78
45793;BME280;31495;42.740;22.908;2022-10-22T03:04:18;93897.13;;;4.76;67.97
45793;BME280;31495;42.740;22.908;2022-10-22T03:05:18;93853.78;;;4.48;67.94
45793;BME280;31495;42.740;22.908;2022-10-22T03:06:18;93890.53;;;4.73;68.27
45793;BME280;31495;42.740;22.908;2022-10-22T03:07:17;93897.59;;;4.71;68.63
45793;BME280;31495;42.740;22.908;2022-10-22T03:08:17;93892.47;;;4.71;68.76
45793;BME280;31495;42.740;22.908;2022-10-22T03:09:17;93890.69;;;4.72;69.08
45793;BME280;31495;42.740;22.908;2022-10-22T03:10:16;93867.56;;;4.55;69.10
45793;BME280;31495;42.740;22.908;2022-10-22T03:11:15;93899.69;;;4.76;69.29
45793;BME280;31495;42.740;22.908;2022-10-22T03:12:15;93901.91;;;4.71;69.34
45793;BME280;31495;42.740;22.908;2022-10-22T03:13:14;93893.91;;;4.66;69.41
45793;BME280;31495;42.740;22.908;2022-10-22T03:14:14;93890.66;;;4.64;69.61
45793;BME280;31495;42.740;22.908;2022-10-22T03:15:13;93899.22;;;4.72;69.68
45793;BME280;31495;42.740;22.908;2022-10-22T03:16:12;93876.25;;;4.63;69.32
45793;BME280;31495;42.740;22.908;2022-10-22T03:17:12;93876.06;;;4.56;69.16
45793;BME280;31495;42.740;22.908;2022-10-22T03:18:11;93890.19;;;4.68;68.77
45793;BME280;31495;42.740;22.908;2022-10-22T03:19:11;93869.19;;;4.56;68.21
45793;BME280;31495;42.740;22.908;2022-10-22T03:20:10;93894.38;;;4.69;68.01
45793;BME280;31495;42.740;22.908;2022-10-22T03:21:35;93880.06;;;4.58;68.11
45793;BME280;31495;42.740;22.908;2022-10-22T03:22:38;93863.88;;;4.50;68.16
45793;BME280;31495;42.740;22.908;2022-10-22T03:23:41;93888.25;;;4.62;68.13
45793;BME280;31495;42.740;22.908;2022-10-22T03:24:44;93880.56;;;4.62;68.29
45793;BME280;31495;42.740;22.908;2022-10-22T03:25:46;93887.00;;;4.66;68.24
45793;BME280;31495;42.740;22.908;2022-10-22T03:26:49;93882.03;;;4.65;67.84
45793;BME280;31495;42.740;22.908;2022-10-22T03:27:51;93867.09;;;4.60;67.51
45793;BME280;31495;42.740;22.908;2022-10-22T03:28:52;93886.03;;;4.67;67.64
45793;BME280;31495;42.740;22.908;2022-10-22T03:29:53;93890.03;;;4.62;68.04
45793;BME280;31495;42.740;22.908;2022-10-22T03:30:53;93853.41;;;4.35;68.04
45793;BME280;31495;42.740;22.908;2022-10-22T03:31:53;93894.19;;;4.63;68.00
45793;BME280;31495;42.740;22.908;2022-10-22T03:32:53;93850.19;;;4.33;67.85
45793;BME280;31495;42.740;22.908;2022-10-22T03:33:52;93900.72;;;4.57;67.59
45793;BME280;31495;42.740;22.908;2022-10-22T03:34:52;93903.63;;;4.62;67.79
45793;BME280;31495;42.740;22.908;2022-10-22T03:35:51;93873.78;;;4.45;68.13
45793;BME280;31495;42.740;22.908;2022-10-22T03:36:52;93906.03;;;4.64;68.42
45793;BME280;31495;42.740;22.908;2022-10-22T03:37:53;93902.34;;;4.58;68.62
45793;BME280;31495;42.740;22.908;2022-10-22T03:38:53;93900.75;;;4.65;68.77
45793;BME280;31495;42.740;22.908;2022-10-22T03:39:53;93888.06;;;4.55;68.62
45793;BME280;31495;42.740;22.908;2022-10-22T03:40:54;93873.94;;;4.43;68.88
45793;BME280;31495;42.740;22.908;2022-10-22T03:41:54;93864.47;;;4.44;68.89
45793;BME280;31495;42.740;22.908;2022-10-22T03:42:54;93833.81;;;4.26;69.34
45793;BME280;31495;42.740;22.908;2022-10-22T03:43:54;93887.78;;;4.67;69.70
45793;BME280;31495;42.740;22.908;2022-10-22T03:44:54;93890.66;;;4.64;69.73
45793;BME280;31495;42.740;22.908;2022-10-22T03:45:53;93853.28;;;4.45;69.70
45793;BME280;31495;42.740;22.908;2022-10-22T03:46:53;93873.03;;;4.60;69.88
45793;BME280;31495;42.740;22.908;2022-10-22T03:47:52;93884.50;;;4.83;69.16
45793;BME280;31495;42.740;22.908;2022-10-22T03:48:52;93859.91;;;4.64;69.24
45793;BME280;31495;42.740;22.908;2022-10-22T03:49:51;93885.44;;;4.82;69.34
45793;BME280;31495;42.740;22.908;2022-10-22T03:50:51;93888.00;;;4.82;69.44
45793;BME280;31495;42.740;22.908;2022-10-22T03:51:50;93890.56;;;4.82;69.22
45793;BME280;31495;42.740;22.908;2022-10-22T03:52:50;93884.47;;;4.74;69.45
45793;BME280;31495;42.740;22.908;2022-10-22T03:53:49;93895.06;;;4.79;69.27
45793;BME280;31495;42.740;22.908;2022-10-22T03:54:48;93845.13;;;4.57;69.11
45793;BME280;31495;42.740;22.908;2022-10-22T03:55:48;93867.00;;;4.78;69.33
45793;BME280;31495;42.740;22.908;2022-10-22T03:56:47;93872.91;;;4.78;69.41
45793;BME280;31495;42.740;22.908;2022-10-22T03:57:47;93883.03;;;4.88;69.52
45793;BME280;31495;42.740;22.908;2022-10-22T03:58:46;93879.06;;;4.86;69.42
45793;BME280;31495;42.740;22.908;2022-10-22T03:59:45;93862.19;;;4.75;69.15
45793;BME280;31495;42.740;22.908;2022-10-22T04:00:45;93869.41;;;4.79;69.25
45793;BME280;31495;42.740;22.908;2022-10-22T04:01:44;93855.97;;;4.86;68.87
45793;BME280;31495;42.740;22.908;2022-10-22T04:02:44;93861.25;;;4.84;69.21
45793;BME280;31495;42.740;22.908;2022-10-22T04:03:43;93880.81;;;5.02;69.25
45793;BME280;31495;42.740;22.908;2022-10-22T04:04:43;93884.84;;;5.04;69.01
45793;BME280;31495;42.740;22.908;2022-10-22T04:05:42;93867.53;;;4.98;69.02
45793;BME280;31495;42.740;22.908;2022-10-22T04:06:41;93867.53;;;5.06;69.41
45793;BME280;31495;42.740;22.908;2022-10-22T04:07:41;93871.25;;;5.12;69.36
45793;BME280;31495;42.740;22.908;2022-10-22T04:08:42;93873.16;;;5.18;69.06
45793;BME280;31495;42.740;22.908;2022-10-22T04:09:42;93868.53;;;5.22;69.11
45793;BME280;31495;42.740;22.908;2022-10-22T04:10:41;93845.09;;;5.00;69.42
45793;BME280;31495;42.740;22.908;2022-10-22T04:11:41;93865.31;;;5.20;69.65
45793;BME280;31495;42.740;22.908;2022-10-22T04:12:40;93865.00;;;5.23;69.95
45793;BME280;31495;42.740;22.908;2022-10-22T04:13:41;93820.09;;;4.94;70.15
45793;BME280;31495;42.740;22.908;2022-10-22T04:14:40;93844.13;;;5.09;69.97
45793;BME280;31495;42.740;22.908;2022-10-22T04:15:39;93854.56;;;5.16;70.17
45793;BME280;31495;42.740;22.908;2022-10-22T04:16:39;93864.50;;;5.19;70.14
45793;BME280;31495;42.740;22.908;2022-10-22T04:17:39;93842.84;;;4.97;69.29
45793;BME280;31495;42.740;22.908;2022-10-22T04:18:39;93871.56;;;5.09;69.07
45793;BME280;31495;42.740;22.908;2022-10-22T04:19:39;93878.63;;;5.07;69.05
45793;BME280;31495;42.740;22.908;2022-10-22T04:20:40;93867.06;;;5.03;69.12
45793;BME280;31495;42.740;22.908;2022-10-22T04:21:39;93879.09;;;5.10;69.10
45793;BME280;31495;42.740;22.908;2022-10-22T04:22:39;93881.66;;;5.10;69.11
45793;BME280;31495;42.740;22.908;2022-10-22T04:23:38;93855.38;;;5.00;68.89
45793;BME280;31495;42.740;22.908;2022-10-22T04:24:42;93875.72;;;5.18;69.15
45793;BME280;31495;42.740;22.908;2022-10-22T04:25:42;93876.06;;;5.15;69.15
45793;BME280;31495;42.740;22.908;2022-10-22T04:26:41;93858.91;;;5.15;68.92
45793;BME280;31495;42.740;22.908;2022-10-22T04:27:40;93852.31;;;5.13;68.67
45793;BME280;31495;42.740;22.908;2022-10-22T04:28:40;93865.81;;;5.15;69.35
45793;BME280;31495;42.740;22.908;2022-10-22T04:29:40;93856.81;;;5.11;69.52
45793;BME280;31495;42.740;22.908;2022-10-22T04:30:39;93864.50;;;5.19;69.50
45793;BME280;31495;42.740;22.908;2022-10-22T04:31:39;93867.09;;;5.27;69.50
45793;BME280;31495;42.740;22.908;2022-10-22T04:32:38;93864.38;;;5.29;69.18
45793;BME280;31495;42.740;22.908;2022-10-22T04:33:38;93874.94;;;5.34;69.48
45793;BME280;31495;42.740;22.908;2022-10-22T04:34:38;93852.69;;;5.26;69.56
45793;BME280;31495;42.740;22.908;2022-10-22T04:35:38;93826.97;;;5.10;69.89
45793;BME280;31495;42.740;22.908;2022-10-22T04:36:38;93879.13;;;5.35;69.55
45793;BME280;31495;42.740;22.908;2022-10-22T04:37:37;93877.69;;;5.32;69.72
45793;BME280;31495;42.740;22.908;2022-10-22T04:38:38;93864.53;;;5.27;69.64
45793;BME280;31495;42.740;22.908;2022-10-22T04:39:37;93869.97;;;5.24;69.55
45793;BME280;31495;42.740;22.908;2022-10-22T04:40:37;93852.63;;;5.18;69.47
45793;BME280;31495;42.740;22.908;2022-10-22T04:41:37;93861.63;;;5.22;69.50
45793;BME280;31495;42.740;22.908;2022-10-22T04:42:37;93853.47;;;5.19;69.19
45793;BME280;31495;42.740;22.908;2022-10-22T04:43:37;93865.00;;;5.23;68.95
45793;BME280;31495;42.740;22.908;2022-10-22T04:44:37;93875.78;;;5.34;68.80
45793;BME280;31495;42.740;22.908;2022-10-22T04:45:36;93861.16;;;5.27;68.77
45793;BME280;31495;42.740;22.908;2022-10-22T04:46:36;93884.44;;;5.42;68.83
45793;BME280;31495;42.740;22.908;2022-10-22T04:47:35;93883.94;;;5.38;68.91
45793;BME280;31495;42.740;22.908;2022-10-22T04:48:36;93881.06;;;5.25;68.88
45793;BME280;31495;42.740;22.908;2022-10-22T04:49:36;93889.22;;;5.28;69.27
45793;BME280;31495;42.740;22.908;2022-10-22T04:50:36;93843.50;;;4.99;69.00
45793;BME280;31495;42.740;22.908;2022-10-22T04:51:35;93892.13;;;5.25;69.16
45793;BME280;31495;42.740;22.908;2022-10-22T04:52:34;93863.38;;;5.05;69.38
45793;BME280;31495;42.740;22.908;2022-10-22T04:53:34;93883.59;;;5.17;69.50
45793;BME280;31495;42.740;22.908;2022-10-22T04:54:34;93889.53;;;5.17;69.69
45793;BME280;31495;42.740;22.908;2022-10-22T04:55:34;93871.09;;;5.05;69.88
45793;BME280;31495;42.740;22.908;2022-10-22T04:56:33;93887.44;;;5.12;69.99
45793;BME280;31495;42.740;22.908;2022-10-22T04:57:32;93888.38;;;5.11;70.13
45793;BME280;31495;42.740;22.908;2022-10-22T04:58:32;93851.63;;;4.78;70.52
45793;BME280;31495;42.740;22.908;2022-10-22T04:59:31;93894.78;;;4.99;70.98
45793;BME280;31495;42.740;22.908;2022-10-22T05:00:31;93873.78;;;4.87;71.03
45793;BME280;31495;42.740;22.908;2022-10-22T05:01:38;93871.19;;;4.87;70.89
45793;BME280;31495;42.740;22.908;2022-10-22T05:02:38;93891.09;;;5.02;70.77
45793;BME280;31495;42.740;22.908;2022-10-22T05:03:37;93897.38;;;5.07;70.83
45793;BME280;31495;42.740;22.908;2022-10-22T05:04:37;93894.47;;;5.02;70.77
45793;BME280;31495;42.740;22.908;2022-10-22T05:05:36;93896.91;;;5.12;70.51
45793;BME280;31495;42.740;22.908;2022-10-22T05:06:36;93903.13;;;5.09;70.49
45793;BME280;31495;42.740;22.908;2022-10-22T05:07:35;93903.28;;;5.08;70.22
45793;BME280;31495;42.740;22.908;2022-10-22T05:08:35;93898.16;;;5.00;70.32
45793;BME280;31495;42.740;22.908;2022-10-22T05:09:34;93905.06;;;5.07;70.45
45793;BME280;31495;42.740;22.908;2022-10-22T05:10:34;93900.41;;;5.03;70.38
45793;BME280;31495;42.740;22.908;2022-10-22T05:11:35;93903.28;;;5.08;70.19
45793;BME280;31495;42.740;22.908;2022-10-22T05:12:35;93912.91;;;5.06;70.37
45793;BME280;31495;42.740;22.908;2022-10-22T05:13:34;93907.47;;;5.09;70.21
45793;BME280;31495;42.740;22.908;2022-10-22T05:14:34;93909.06;;;5.10;70.13
45793;BME280;31495;42.740;22.908;2022-10-22T05:15:33;93897.53;;;5.06;70.11
45793;BME280;31495;42.740;22.908;2022-10-22T05:16:33;93896.91;;;5.12;70.30
45793;BME280;31495;42.740;22.908;2022-10-22T05:17:35;93879.22;;;4.92;70.59
45793;BME280;31495;42.740;22.908;2022-10-22T05:18:37;93895.44;;;5.01;70.90
45793;BME280;31495;42.740;22.908;2022-10-22T05:19:37;93901.38;;;5.10;71.14
45793;BME280;31495;42.740;22.908;2022-10-22T05:20:41;93883.06;;;4.96;71.11
45793;BME280;31495;42.740;22.908;2022-10-22T05:21:40;93900.09;;;5.14;70.97
45793;BME280;31495;42.740;22.908;2022-10-22T05:22:40;93872.50;;;5.00;70.76
45793;BME280;31495;42.740;22.908;2022-10-22T05:23:39;93904.63;;;5.20;70.20
45793;BME280;31495;42.740;22.908;2022-10-22T05:24:39;93884.69;;;5.06;70.50
45793;BME280;31495;42.740;22.908;2022-10-22T05:25:39;93844.75;;;4.87;70.01
45793;BME280;31495;42.740;22.908;2022-10-22T05:26:38;93888.22;;;5.13;69.90
45793;BME280;31495;42.740;22.908;2022-10-22T05:27:38;93895.63;;;5.16;70.21
45793;BME280;31495;42.740;22.908;2022-10-22T05:28:37;93881.81;;;5.01;70.32
45793;BME280;31495;42.740;22.908;2022-10-22T05:29:37;93891.28;;;5.08;70.40
45793;BME280;31495;42.740;22.908;2022-10-22T05:30:36;93871.69;;;4.91;70.48
45793;BME280;31495;42.740;22.908;2022-10-22T05:31:36;93904.91;;;5.09;70.49
45793;BME280;31495;42.740;22.908;2022-10-22T05:32:37;93885.66;;;5.05;70.18
45793;BME280;31495;42.740;22.908;2022-10-22T05:33:37;93872.50;;;5.00;70.08
45793;BME280;31495;42.740;22.908;2022-10-22T05:34:37;93901.22;;;5.20;70.36
45793;BME280;31495;42.740;22.908;2022-10-22T05:35:36;93877.81;;;5.06;70.32
45793;BME280;31495;42.740;22.908;2022-10-22T05:36:36;93901.38;;;5.18;70.30
45793;BME280;31495;42.740;22.908;2022-10-22T05:37:36;93881.81;;;5.01;70.36
45793;BME280;31495;42.740;22.908;2022-10-22T05:38:35;93903.78;;;5.11;70.42
45793;BME280;31495;42.740;22.908;2022-10-22T05:39:35;93848.75;;;4.81;70.23
45793;BME280;31495;42.740;22.908;2022-10-22T05:40:35;93909.13;;;5.26;70.16
45793;BME280;31495;42.740;22.908;2022-10-22T05:41:34;93915.84;;;5.27;70.01
45793;BME280;31495;42.740;22.908;2022-10-22T05:42:34;93898.66;;;5.20;70.08
45793;BME280;31495;42.740;22.908;2022-10-22T05:43:34;93917.78;;;5.33;70.32
45793;BME280;31495;42.740;22.908;2022-10-22T05:44:34;93921.63;;;5.38;70.15
45793;BME280;31495;42.740;22.908;2022-10-22T05:45:37;93924.34;;;5.44;70.02
45793;BME280;31495;42.740;22.908;2022-10-22T05:46:38;93921.47;;;5.47;70.09
45793;BME280;31495;42.740;22.908;2022-10-22T05:47:37;93917.81;;;5.50;70.10
45793;BME280;31495;42.740;22.908;2022-10-22T05:48:37;93926.94;;;5.52;70.37